sensor_id;sensor_type;location;lat;lon;timestamp;pressure;altitude;pressure_sealevel;temperature;humidity
45872;BME280;32333;55.844;-3.210;2023-08-06T00:01:54;99482.89;;;12.45;100.00
45872;BME280;32333;55.844;-3.210;2023-08-06T00:04:22;99483.40;;;11.96;100.00
45872;BME280;32333;55.844;-3.210;2023-08-06T00:06:51;99485.13;;;11.57;100.00
45872;BME280;32333;55.844;-3.210;2023-08-06T00:09:20;99484.31;;;12.03;100.00
45872;BME280;32333;55.844;-3.210;2023-08-06T00:11:49;99482.43;;;13.32;100.00
45872;BME280;32333;55.844;-3.210;2023-08-06T00:14:36;99485.75;;;12.64;100.00
45872;BME280;32333;55.844;-3.210;2023-08-06T00:17:04;99486.79;;;12.82;100.00
45872;BME280;32333;55.844;-3.210;2023-08-06T00:19:32;99486.51;;;12.57;100.00
45872;BME280;32333;55.844;-3.210;2023-08-06T00:21:59;99485.17;;;13.30;100.00
45872;BME280;32333;55.844;-3.210;2023-08-06T00:24:28;99488.27;;;12.04;100.00
45872;BME280;32333;55.844;-3.210;2023-08-06T00:26:56;99491.99;;;12.56;100.00
45872;BME280;32333;55.844;-3.210;2023-08-06T00:29:24;99493.27;;;12.94;100.00
45872;BME280;32333;55.844;-3.210;2023-08-06T00:31:52;99494.91;;;12.80;100.00
45872;BME280;32333;55.844;-3.210;2023-08-06T00:34:20;99491.80;;;13.64;100.00
45872;BME280;32333;55.844;-3.210;2023-08-06T00:36:49;99493.61;;;13.51;100.00
45872;BME280;32333;55.844;-3.210;2023-08-06T00:39:19;99495.04;;;12.88;100.00
45872;BME280;32333;55.844;-3.210;2023-08-06T00:41:47;99498.24;;;12.13;100.00
45872;BME280;32333;55.844;-3.210;2023-08-06T00:44:36;99499.62;;;12.54;100.00
45872;BME280;32333;55.844;-3.210;2023-08-06T00:47:04;99499.36;;;12.59;100.00
45872;BME280;32333;55.844;-3.210;2023-08-06T00:49:36;99499.02;;;12.74;100.00
45872;BME280;32333;55.844;-3.210;2023-08-06T00:52:08;99498.08;;;13.47;100.00
45872;BME280;32333;55.844;-3.210;2023-08-06T00:54:37;99497.99;;;13.67;100.00
45872;BME280;32333;55.844;-3.210;2023-08-06T00:57:07;99495.37;;;14.11;100.00
45872;BME280;32333;55.844;-3.210;2023-08-06T00:59:44;99497.49;;;13.01;100.00
45872;BME280;32333;55.844;-3.210;2023-08-06T01:02:12;99494.59;;;13.46;100.00
45872;BME280;32333;55.844;-3.210;2023-08-06T01:04:41;99493.72;;;13.43;100.00
45872;BME280;32333;55.844;-3.210;2023-08-06T01:07:19;99497.78;;;12.81;100.00
45872;BME280;32333;55.844;-3.210;2023-08-06T01:09:57;99501.62;;;12.65;100.00
45872;BME280;32333;55.844;-3.210;2023-08-06T01:14:47;99505.54;;;12.08;100.00
45872;BME280;32333;55.844;-3.210;2023-08-06T01:17:16;99504.01;;;13.09;100.00
45872;BME280;32333;55.844;-3.210;2023-08-06T01:19:45;99510.81;;;10.31;100.00
45872;BME280;32333;55.844;-3.210;2023-08-06T01:22:13;99504.59;;;12.77;100.00
45872;BME280;32333;55.844;-3.210;2023-08-06T01:24:41;99507.03;;;12.01;100.00
45872;BME280;32333;55.844;-3.210;2023-08-06T01:27:17;99506.59;;;13.16;100.00
45872;BME280;32333;55.844;-3.210;2023-08-06T01:29:52;99510.28;;;12.12;100.00
45872;BME280;32333;55.844;-3.210;2023-08-06T01:32:23;99514.15;;;12.10;100.00
45872;BME280;32333;55.844;-3.210;2023-08-06T01:34:53;99516.31;;;11.97;100.00
45872;BME280;32333;55.844;-3.210;2023-08-06T01:37:22;99518.31;;;12.38;100.00
45872;BME280;32333;55.844;-3.210;2023-08-06T01:39:50;99520.86;;;12.76;100.00
45872;BME280;32333;55.844;-3.210;2023-08-06T01:44:35;99528.03;;;12.31;100.00
45872;BME280;32333;55.844;-3.210;2023-08-06T01:47:03;99527.73;;;12.14;100.00
45872;BME280;32333;55.844;-3.210;2023-08-06T01:49:31;99527.38;;;12.89;100.00
45872;BME280;32333;55.844;-3.210;2023-08-06T01:51:59;99531.08;;;12.64;100.00
45872;BME280;32333;55.844;-3.210;2023-08-06T01:54:27;99529.49;;;13.20;100.00
45872;BME280;32333;55.844;-3.210;2023-08-06T01:56:54;99527.60;;;12.66;100.00
45872;BME280;32333;55.844;-3.210;2023-08-06T01:59:22;99531.04;;;12.40;100.00
45872;BME280;32333;55.844;-3.210;2023-08-06T02:01:50;99525.71;;;12.93;100.00
45872;BME280;32333;55.844;-3.210;2023-08-06T02:04:18;99527.24;;;11.98;100.00
45872;BME280;32333;55.844;-3.210;2023-08-06T02:06:47;99533.24;;;12.68;100.00
45872;BME280;32333;55.844;-3.210;2023-08-06T02:09:14;99531.54;;;13.41;100.00
45872;BME280;32333;55.844;-3.210;2023-08-06T02:11:42;99531.76;;;13.12;100.00
45872;BME280;32333;55.844;-3.210;2023-08-06T02:14:35;99532.29;;;12.72;100.00
45872;BME280;32333;55.844;-3.210;2023-08-06T02:17:02;99533.18;;;12.07;100.00
45872;BME280;32333;55.844;-3.210;2023-08-06T02:19:30;99530.26;;;13.91;100.00
45872;BME280;32333;55.844;-3.210;2023-08-06T02:21:59;99531.78;;;13.27;100.00
45872;BME280;32333;55.844;-3.210;2023-08-06T02:24:27;99529.02;;;11.71;100.00
45872;BME280;32333;55.844;-3.210;2023-08-06T02:26:55;99529.25;;;12.47;100.00
45872;BME280;32333;55.844;-3.210;2023-08-06T02:29:23;99528.47;;;13.52;100.00
45872;BME280;32333;55.844;-3.210;2023-08-06T02:31:50;99528.14;;;13.47;100.00
45872;BME280;32333;55.844;-3.210;2023-08-06T02:34:18;99535.28;;;12.13;100.00
45872;BME280;32333;55.844;-3.210;2023-08-06T02:36:46;99531.37;;;13.05;100.00
45872;BME280;32333;55.844;-3.210;2023-08-06T02:39:14;99532.18;;;12.81;100.00
45872;BME280;32333;55.844;-3.210;2023-08-06T02:41:41;99530.03;;;13.47;100.00
45872;BME280;32333;55.844;-3.210;2023-08-06T02:44:35;99525.49;;;13.14;100.00
45872;BME280;32333;55.844;-3.210;2023-08-06T02:47:03;99523.42;;;12.55;100.00
45872;BME280;32333;55.844;-3.210;2023-08-06T02:49:31;99525.39;;;13.41;100.00
45872;BME280;32333;55.844;-3.210;2023-08-06T02:51:58;99523.85;;;13.36;100.00
45872;BME280;32333;55.844;-3.210;2023-08-06T02:54:27;99528.62;;;12.93;100.00
45872;BME280;32333;55.844;-3.210;2023-08-06T02:56:54;99527.18;;;13.48;100.00
45872;BME280;32333;55.844;-3.210;2023-08-06T02:59:23;99532.21;;;13.26;100.00
45872;BME280;32333;55.844;-3.210;2023-08-06T03:01:52;99534.31;;;13.43;100.00
45872;BME280;32333;55.844;-3.210;2023-08-06T03:04:20;99534.95;;;13.48;100.00
45872;BME280;32333;55.844;-3.210;2023-08-06T03:06:49;99538.96;;;13.56;100.00
45872;BME280;32333;55.844;-3.210;2023-08-06T03:09:18;99536.94;;;13.03;100.00
45872;BME280;32333;55.844;-3.210;2023-08-06T03:11:45;99539.35;;;13.12;100.00
45872;BME280;32333;55.844;-3.210;2023-08-06T03:14:36;99537.87;;;14.47;100.00
45872;BME280;32333;55.844;-3.210;2023-08-06T03:17:04;99534.73;;;13.23;100.00
45872;BME280;32333;55.844;-3.210;2023-08-06T03:19:33;99538.14;;;12.62;100.00
45872;BME280;32333;55.844;-3.210;2023-08-06T03:22:01;99535.36;;;13.08;100.00
45872;BME280;32333;55.844;-3.210;2023-08-06T03:24:29;99532.78;;;13.81;100.00
45872;BME280;32333;55.844;-3.210;2023-08-06T03:26:58;99530.27;;;13.64;100.00
45872;BME280;32333;55.844;-3.210;2023-08-06T03:29:26;99531.26;;;13.14;100.00
45872;BME280;32333;55.844;-3.210;2023-08-06T03:31:53;99529.12;;;11.50;100.00
45872;BME280;32333;55.844;-3.210;2023-08-06T03:34:22;99530.43;;;12.21;100.00
45872;BME280;32333;55.844;-3.210;2023-08-06T03:36:49;99529.01;;;12.18;100.00
45872;BME280;32333;55.844;-3.210;2023-08-06T03:39:17;99531.19;;;12.79;100.00
45872;BME280;32333;55.844;-3.210;2023-08-06T03:41:45;99532.03;;;13.34;100.00
45872;BME280;32333;55.844;-3.210;2023-08-06T03:44:35;99535.57;;;12.84;100.00
45872;BME280;32333;55.844;-3.210;2023-08-06T03:47:04;99534.01;;;12.76;100.00
45872;BME280;32333;55.844;-3.210;2023-08-06T03:49:32;99534.83;;;12.24;100.00
45872;BME280;32333;55.844;-3.210;2023-08-06T03:52:01;99533.02;;;11.75;100.00
45872;BME280;32333;55.844;-3.210;2023-08-06T03:54:31;99528.36;;;11.48;100.00
45872;BME280;32333;55.844;-3.210;2023-08-06T03:56:59;99531.11;;;11.98;100.00
45872;BME280;32333;55.844;-3.210;2023-08-06T03:59:27;99533.25;;;12.17;100.00
45872;BME280;32333;55.844;-3.210;2023-08-06T04:01:56;99537.24;;;12.64;100.00
45872;BME280;32333;55.844;-3.210;2023-08-06T04:04:24;99538.48;;;12.14;100.00
45872;BME280;32333;55.844;-3.210;2023-08-06T04:06:52;99536.55;;;12.63;100.00
45872;BME280;32333;55.844;-3.210;2023-08-06T04:09:20;99536.95;;;12.42;100.00
45872;BME280;32333;55.844;-3.210;2023-08-06T04:11:48;99536.89;;;11.37;100.00
45872;BME280;32333;55.844;-3.210;2023-08-06T04:14:35;99540.11;;;12.39;100.00
45872;BME280;32333;55.844;-3.210;2023-08-06T04:17:03;99542.62;;;12.85;100.00
45872;BME280;32333;55.844;-3.210;2023-08-06T04:19:31;99548.12;;;12.41;100.00
45872;BME280;32333;55.844;-3.210;2023-08-06T04:21:59;99548.08;;;12.51;100.00
45872;BME280;32333;55.844;-3.210;2023-08-06T04:24:27;99549.89;;;12.14;100.00
45872;BME280;32333;55.844;-3.210;2023-08-06T04:26:55;99547.98;;;11.77;100.00
45872;BME280;32333;55.844;-3.210;2023-08-06T04:29:23;99550.28;;;12.70;100.00
45872;BME280;32333;55.844;-3.210;2023-08-06T04:31:51;99552.04;;;12.15;100.00
45872;BME280;32333;55.844;-3.210;2023-08-06T04:34:19;99551.45;;;12.34;100.00
45872;BME280;32333;55.844;-3.210;2023-08-06T04:36:46;99553.08;;;12.18;100.00
45872;BME280;32333;55.844;-3.210;2023-08-06T04:39:13;99556.02;;;12.50;100.00
45872;BME280;32333;55.844;-3.210;2023-08-06T04:41:42;99557.58;;;12.50;100.00
45872;BME280;32333;55.844;-3.210;2023-08-06T04:44:35;99559.07;;;11.87;100.00
45872;BME280;32333;55.844;-3.210;2023-08-06T04:47:03;99560.33;;;11.52;100.00
45872;BME280;32333;55.844;-3.210;2023-08-06T04:49:31;99561.87;;;11.57;100.00
45872;BME280;32333;55.844;-3.210;2023-08-06T04:51:59;99561.88;;;12.40;100.00
45872;BME280;32333;55.844;-3.210;2023-08-06T04:54:26;99563.68;;;11.78;100.00
45872;BME280;32333;55.844;-3.210;2023-08-06T04:56:53;99566.26;;;10.88;100.00
45872;BME280;32333;55.844;-3.210;2023-08-06T04:59:21;99572.35;;;11.19;100.00
45872;BME280;32333;55.844;-3.210;2023-08-06T05:01:49;99571.60;;;10.94;100.00
45872;BME280;32333;55.844;-3.210;2023-08-06T05:04:16;99575.13;;;10.90;100.00
45872;BME280;32333;55.844;-3.210;2023-08-06T05:06:44;99567.01;;;13.19;100.00
45872;BME280;32333;55.844;-3.210;2023-08-06T05:09:12;99570.87;;;12.54;100.00
45872;BME280;32333;55.844;-3.210;2023-08-06T05:11:39;99568.44;;;13.06;100.00
45872;BME280;32333;55.844;-3.210;2023-08-06T05:14:35;99567.78;;;13.21;100.00
45872;BME280;32333;55.844;-3.210;2023-08-06T05:17:04;99562.44;;;13.92;100.00
45872;BME280;32333;55.844;-3.210;2023-08-06T05:19:31;99559.03;;;13.99;100.00
45872;BME280;32333;55.844;-3.210;2023-08-06T05:22:00;99561.36;;;13.31;100.00
45872;BME280;32333;55.844;-3.210;2023-08-06T05:24:27;99560.48;;;11.36;100.00
45872;BME280;32333;55.844;-3.210;2023-08-06T05:26:55;99569.44;;;10.97;100.00
45872;BME280;32333;55.844;-3.210;2023-08-06T05:29:23;99567.39;;;12.82;100.00
45872;BME280;32333;55.844;-3.210;2023-08-06T05:31:50;99569.39;;;12.81;100.00
45872;BME280;32333;55.844;-3.210;2023-08-06T05:34:18;99570.38;;;13.46;100.00
45872;BME280;32333;55.844;-3.210;2023-08-06T05:36:46;99575.94;;;13.61;100.00
45872;BME280;32333;55.844;-3.210;2023-08-06T05:39:14;99578.43;;;13.28;100.00
45872;BME280;32333;55.844;-3.210;2023-08-06T05:41:42;99583.61;;;11.69;100.00
45872;BME280;32333;55.844;-3.210;2023-08-06T05:44:35;99586.58;;;12.59;100.00
45872;BME280;32333;55.844;-3.210;2023-08-06T05:47:04;99584.73;;;13.49;100.00
45872;BME280;32333;55.844;-3.210;2023-08-06T05:49:32;99584.15;;;13.19;100.00
45872;BME280;32333;55.844;-3.210;2023-08-06T05:51:59;99583.06;;;14.81;100.00
45872;BME280;32333;55.844;-3.210;2023-08-06T05:54:26;99587.60;;;13.84;100.00
45872;BME280;32333;55.844;-3.210;2023-08-06T05:56:54;99587.85;;;13.28;100.00
45872;BME280;32333;55.844;-3.210;2023-08-06T05:59:23;99589.96;;;12.96;100.00
45872;BME280;32333;55.844;-3.210;2023-08-06T06:01:55;99591.35;;;12.88;100.00
45872;BME280;32333;55.844;-3.210;2023-08-06T06:04:22;99594.91;;;12.61;100.00
45872;BME280;32333;55.844;-3.210;2023-08-06T06:06:50;99596.59;;;12.59;100.00
45872;BME280;32333;55.844;-3.210;2023-08-06T06:09:18;99601.24;;;12.96;100.00
45872;BME280;32333;55.844;-3.210;2023-08-06T06:11:45;99602.72;;;12.26;100.00
45872;BME280;32333;55.844;-3.210;2023-08-06T06:14:36;99604.82;;;12.42;100.00
45872;BME280;32333;55.844;-3.210;2023-08-06T06:17:04;99608.41;;;12.52;100.00
45872;BME280;32333;55.844;-3.210;2023-08-06T06:19:32;99608.62;;;13.15;100.00
45872;BME280;32333;55.844;-3.210;2023-08-06T06:21:59;99606.67;;;12.97;100.00
45872;BME280;32333;55.844;-3.210;2023-08-06T06:24:27;99608.49;;;14.52;100.00
45872;BME280;32333;55.844;-3.210;2023-08-06T06:26:54;99616.23;;;13.93;100.00
45872;BME280;32333;55.844;-3.210;2023-08-06T06:29:23;99620.28;;;12.62;100.00
45872;BME280;32333;55.844;-3.210;2023-08-06T06:31:51;99617.12;;;12.88;100.00
45872;BME280;32333;55.844;-3.210;2023-08-06T06:34:18;99620.71;;;13.95;100.00
45872;BME280;32333;55.844;-3.210;2023-08-06T06:36:46;99622.19;;;13.87;100.00
45872;BME280;32333;55.844;-3.210;2023-08-06T06:39:14;99620.99;;;13.34;100.00
45872;BME280;32333;55.844;-3.210;2023-08-06T06:41:41;99619.06;;;14.54;100.00
45872;BME280;32333;55.844;-3.210;2023-08-06T06:44:59;99622.12;;;13.40;100.00
45872;BME280;32333;55.844;-3.210;2023-08-06T06:47:29;99622.68;;;15.37;100.00
45872;BME280;32333;55.844;-3.210;2023-08-06T06:49:56;99628.02;;;13.37;100.00
45872;BME280;32333;55.844;-3.210;2023-08-06T06:52:24;99629.36;;;13.12;100.00
45872;BME280;32333;55.844;-3.210;2023-08-06T06:54:53;99627.52;;;11.88;100.00
45872;BME280;32333;55.844;-3.210;2023-08-06T06:57:22;99630.08;;;13.09;100.00
45872;BME280;32333;55.844;-3.210;2023-08-06T06:59:51;99630.71;;;12.40;100.00
45872;BME280;32333;55.844;-3.210;2023-08-06T07:02:19;99632.33;;;13.40;100.00
45872;BME280;32333;55.844;-3.210;2023-08-06T07:04:47;99634.19;;;13.31;100.00
45872;BME280;32333;55.844;-3.210;2023-08-06T07:07:15;99635.14;;;13.83;100.00
45872;BME280;32333;55.844;-3.210;2023-08-06T07:09:43;99635.26;;;14.04;100.00
45872;BME280;32333;55.844;-3.210;2023-08-06T07:14:35;99635.54;;;13.90;100.00
45872;BME280;32333;55.844;-3.210;2023-08-06T07:17:16;99633.40;;;14.24;100.00
45872;BME280;32333;55.844;-3.210;2023-08-06T07:19:44;99637.62;;;13.83;100.00
45872;BME280;32333;55.844;-3.210;2023-08-06T07:22:11;99640.24;;;14.07;100.00
45872;BME280;32333;55.844;-3.210;2023-08-06T07:24:40;99643.73;;;13.54;100.00
45872;BME280;32333;55.844;-3.210;2023-08-06T07:27:08;99641.82;;;13.66;100.00
45872;BME280;32333;55.844;-3.210;2023-08-06T07:29:36;99644.73;;;13.58;100.00
45872;BME280;32333;55.844;-3.210;2023-08-06T07:32:08;99642.51;;;13.01;100.00
45872;BME280;32333;55.844;-3.210;2023-08-06T07:34:38;99643.21;;;14.46;100.00
45872;BME280;32333;55.844;-3.210;2023-08-06T07:37:06;99640.17;;;13.95;100.00
45872;BME280;32333;55.844;-3.210;2023-08-06T07:39:34;99639.96;;;14.85;100.00
45872;BME280;32333;55.844;-3.210;2023-08-06T07:44:36;99642.17;;;14.76;100.00
45872;BME280;32333;55.844;-3.210;2023-08-06T07:47:09;99643.86;;;14.28;100.00
45872;BME280;32333;55.844;-3.210;2023-08-06T07:49:37;99645.44;;;15.12;100.00
45872;BME280;32333;55.844;-3.210;2023-08-06T07:52:06;99645.40;;;12.68;100.00
45872;BME280;32333;55.844;-3.210;2023-08-06T07:54:34;99644.42;;;13.64;100.00
45872;BME280;32333;55.844;-3.210;2023-08-06T07:57:02;99647.76;;;13.40;100.00
45872;BME280;32333;55.844;-3.210;2023-08-06T07:59:30;99647.71;;;15.42;100.00
45872;BME280;32333;55.844;-3.210;2023-08-06T08:01:59;99647.87;;;16.23;100.00
45872;BME280;32333;55.844;-3.210;2023-08-06T08:04:27;99647.71;;;14.73;100.00
45872;BME280;32333;55.844;-3.210;2023-08-06T08:06:56;99652.06;;;15.48;100.00
45872;BME280;32333;55.844;-3.210;2023-08-06T08:09:24;99651.10;;;14.78;100.00
45872;BME280;32333;55.844;-3.210;2023-08-06T08:11:53;99651.92;;;14.31;100.00
45872;BME280;32333;55.844;-3.210;2023-08-06T08:14:37;99651.36;;;14.26;100.00
45872;BME280;32333;55.844;-3.210;2023-08-06T08:17:06;99657.13;;;13.57;100.00
45872;BME280;32333;55.844;-3.210;2023-08-06T08:19:35;99653.19;;;13.96;100.00
45872;BME280;32333;55.844;-3.210;2023-08-06T08:22:04;99652.84;;;14.40;100.00
45872;BME280;32333;55.844;-3.210;2023-08-06T08:24:32;99649.71;;;14.81;100.00
45872;BME280;32333;55.844;-3.210;2023-08-06T08:27:02;99655.70;;;14.33;100.00
45872;BME280;32333;55.844;-3.210;2023-08-06T08:29:29;99647.49;;;14.72;100.00
45872;BME280;32333;55.844;-3.210;2023-08-06T08:31:58;99650.19;;;14.08;100.00
45872;BME280;32333;55.844;-3.210;2023-08-06T08:34:25;99652.34;;;13.27;100.00
45872;BME280;32333;55.844;-3.210;2023-08-06T08:36:52;99648.53;;;14.25;100.00
45872;BME280;32333;55.844;-3.210;2023-08-06T08:39:20;99652.26;;;13.90;100.00
45872;BME280;32333;55.844;-3.210;2023-08-06T08:41:48;99653.07;;;13.70;100.00
45872;BME280;32333;55.844;-3.210;2023-08-06T08:44:36;99651.21;;;13.85;100.00
45872;BME280;32333;55.844;-3.210;2023-08-06T08:47:05;99650.98;;;14.45;100.00
45872;BME280;32333;55.844;-3.210;2023-08-06T08:49:36;99652.31;;;14.53;100.00
45872;BME280;32333;55.844;-3.210;2023-08-06T08:52:04;99656.70;;;15.50;100.00
45872;BME280;32333;55.844;-3.210;2023-08-06T08:54:34;99657.28;;;15.16;100.00
45872;BME280;32333;55.844;-3.210;2023-08-06T08:57:04;99662.73;;;15.44;100.00
45872;BME280;32333;55.844;-3.210;2023-08-06T08:59:34;99660.60;;;15.90;100.00
45872;BME280;32333;55.844;-3.210;2023-08-06T09:02:03;99663.34;;;15.85;100.00
45872;BME280;32333;55.844;-3.210;2023-08-06T09:04:31;99664.65;;;14.95;100.00
45872;BME280;32333;55.844;-3.210;2023-08-06T09:07:00;99661.49;;;14.92;100.00
45872;BME280;32333;55.844;-3.210;2023-08-06T09:09:31;99662.36;;;16.21;100.00
45872;BME280;32333;55.844;-3.210;2023-08-06T09:14:36;99660.44;;;14.97;100.00
45872;BME280;32333;55.844;-3.210;2023-08-06T09:17:04;99652.36;;;16.63;100.00
45872;BME280;32333;55.844;-3.210;2023-08-06T09:19:33;99652.45;;;16.82;100.00
45872;BME280;32333;55.844;-3.210;2023-08-06T09:22:02;99653.66;;;18.05;100.00
45872;BME280;32333;55.844;-3.210;2023-08-06T09:24:30;99655.73;;;16.57;100.00
45872;BME280;32333;55.844;-3.210;2023-08-06T09:27:03;99655.78;;;15.76;100.00
45872;BME280;32333;55.844;-3.210;2023-08-06T09:29:31;99655.13;;;16.70;100.00
45872;BME280;32333;55.844;-3.210;2023-08-06T09:31:59;99659.98;;;15.36;100.00
45872;BME280;32333;55.844;-3.210;2023-08-06T09:35:04;99653.88;;;17.70;100.00
45872;BME280;32333;55.844;-3.210;2023-08-06T09:37:36;99660.86;;;15.78;100.00
45872;BME280;32333;55.844;-3.210;2023-08-06T09:40:24;99657.63;;;15.26;100.00
45872;BME280;32333;55.844;-3.210;2023-08-06T09:44:38;99662.42;;;15.02;100.00
45872;BME280;32333;55.844;-3.210;2023-08-06T09:47:16;99660.70;;;16.01;100.00
45872;BME280;32333;55.844;-3.210;2023-08-06T09:49:44;99657.39;;;16.50;100.00
45872;BME280;32333;55.844;-3.210;2023-08-06T09:52:14;99661.97;;;16.75;100.00
45872;BME280;32333;55.844;-3.210;2023-08-06T09:54:43;99668.25;;;14.59;100.00
45872;BME280;32333;55.844;-3.210;2023-08-06T09:57:12;99666.05;;;16.80;100.00
45872;BME280;32333;55.844;-3.210;2023-08-06T09:59:43;99667.22;;;15.77;100.00
45872;BME280;32333;55.844;-3.210;2023-08-06T10:02:16;99665.79;;;16.12;100.00
45872;BME280;32333;55.844;-3.210;2023-08-06T10:04:45;99666.51;;;16.07;100.00
45872;BME280;32333;55.844;-3.210;2023-08-06T10:07:15;99662.43;;;17.78;100.00
45872;BME280;32333;55.844;-3.210;2023-08-06T10:09:45;99660.89;;;16.45;100.00
45872;BME280;32333;55.844;-3.210;2023-08-06T10:14:37;99664.42;;;17.88;100.00
45872;BME280;32333;55.844;-3.210;2023-08-06T10:17:05;99671.54;;;15.89;100.00
45872;BME280;32333;55.844;-3.210;2023-08-06T10:19:39;99669.26;;;16.86;100.00
45872;BME280;32333;55.844;-3.210;2023-08-06T10:22:20;99677.45;;;13.23;100.00
45872;BME280;32333;55.844;-3.210;2023-08-06T10:24:51;99675.89;;;15.84;100.00
45872;BME280;32333;55.844;-3.210;2023-08-06T10:27:30;99670.97;;;17.64;100.00
45872;BME280;32333;55.844;-3.210;2023-08-06T10:30:34;99665.65;;;18.15;100.00
45872;BME280;32333;55.844;-3.210;2023-08-06T10:33:09;99668.75;;;16.49;100.00
45872;BME280;32333;55.844;-3.210;2023-08-06T10:35:42;99670.62;;;17.85;100.00
45872;BME280;32333;55.844;-3.210;2023-08-06T10:38:12;99678.10;;;14.95;100.00
45872;BME280;32333;55.844;-3.210;2023-08-06T10:41:00;99676.91;;;14.50;100.00
45872;BME280;32333;55.844;-3.210;2023-08-06T10:44:37;99674.85;;;15.74;100.00
45872;BME280;32333;55.844;-3.210;2023-08-06T10:47:38;99671.61;;;16.80;100.00
45872;BME280;32333;55.844;-3.210;2023-08-06T10:50:07;99671.86;;;17.46;100.00
45872;BME280;32333;55.844;-3.210;2023-08-06T10:52:36;99675.24;;;15.83;100.00
45872;BME280;32333;55.844;-3.210;2023-08-06T10:55:05;99669.95;;;17.66;100.00
45872;BME280;32333;55.844;-3.210;2023-08-06T10:57:33;99671.46;;;17.78;100.00
45872;BME280;32333;55.844;-3.210;2023-08-06T11:00:05;99670.30;;;17.86;100.00
45872;BME280;32333;55.844;-3.210;2023-08-06T11:02:35;99671.31;;;17.34;100.00
45872;BME280;32333;55.844;-3.210;2023-08-06T11:17:03;99673.38;;;18.08;100.00
45872;BME280;32333;55.844;-3.210;2023-08-06T11:19:34;99671.82;;;16.61;100.00
45872;BME280;32333;55.844;-3.210;2023-08-06T11:22:01;99670.97;;;17.26;100.00
45872;BME280;32333;55.844;-3.210;2023-08-06T11:24:28;99668.90;;;17.76;100.00
45872;BME280;32333;55.844;-3.210;2023-08-06T11:26:57;99667.53;;;16.58;100.00
45872;BME280;32333;55.844;-3.210;2023-08-06T11:29:25;99667.10;;;18.50;100.00
45872;BME280;32333;55.844;-3.210;2023-08-06T11:31:52;99665.94;;;19.07;100.00
45872;BME280;32333;55.844;-3.210;2023-08-06T11:34:20;99665.72;;;18.58;94.72
45872;BME280;32333;55.844;-3.210;2023-08-06T11:36:48;99668.58;;;18.58;98.92
45872;BME280;32333;55.844;-3.210;2023-08-06T11:39:15;99668.17;;;15.88;100.00
45872;BME280;32333;55.844;-3.210;2023-08-06T11:41:43;99667.42;;;19.36;100.00
45872;BME280;32333;55.844;-3.210;2023-08-06T11:44:36;99670.54;;;17.89;100.00
45872;BME280;32333;55.844;-3.210;2023-08-06T11:47:04;99671.84;;;17.66;100.00
45872;BME280;32333;55.844;-3.210;2023-08-06T11:49:41;99665.88;;;19.02;95.74
45872;BME280;32333;55.844;-3.210;2023-08-06T11:52:12;99670.57;;;19.48;95.53
45872;BME280;32333;55.844;-3.210;2023-08-06T11:54:42;99664.46;;;19.07;89.50
45872;BME280;32333;55.844;-3.210;2023-08-06T11:57:11;99666.95;;;18.36;94.00
45872;BME280;32333;55.844;-3.210;2023-08-06T11:59:40;99662.71;;;18.74;85.98
45872;BME280;32333;55.844;-3.210;2023-08-06T12:02:09;99667.07;;;19.41;81.06
45872;BME280;32333;55.844;-3.210;2023-08-06T12:05:11;99668.04;;;20.85;74.97
45872;BME280;32333;55.844;-3.210;2023-08-06T12:07:42;99667.02;;;19.54;85.60
45872;BME280;32333;55.844;-3.210;2023-08-06T12:10:10;99669.57;;;17.56;91.49
45872;BME280;32333;55.844;-3.210;2023-08-06T12:14:38;99667.98;;;18.27;91.62
45872;BME280;32333;55.844;-3.210;2023-08-06T12:17:05;99665.46;;;18.58;90.85
45872;BME280;32333;55.844;-3.210;2023-08-06T12:19:34;99669.47;;;19.90;85.06
45872;BME280;32333;55.844;-3.210;2023-08-06T12:22:01;99671.48;;;19.06;88.56
45872;BME280;32333;55.844;-3.210;2023-08-06T12:24:30;99669.17;;;18.19;92.96
45872;BME280;32333;55.844;-3.210;2023-08-06T12:26:57;99668.23;;;17.00;100.00
45872;BME280;32333;55.844;-3.210;2023-08-06T12:29:25;99673.92;;;17.23;100.00
45872;BME280;32333;55.844;-3.210;2023-08-06T12:31:54;99674.60;;;17.10;100.00
45872;BME280;32333;55.844;-3.210;2023-08-06T12:34:21;99677.86;;;18.12;100.00
45872;BME280;32333;55.844;-3.210;2023-08-06T12:36:49;99678.41;;;17.92;100.00
45872;BME280;32333;55.844;-3.210;2023-08-06T12:39:16;99684.47;;;15.34;100.00
45872;BME280;32333;55.844;-3.210;2023-08-06T12:41:43;99684.28;;;16.03;100.00
45872;BME280;32333;55.844;-3.210;2023-08-06T12:44:35;99679.58;;;15.28;100.00
45872;BME280;32333;55.844;-3.210;2023-08-06T12:47:02;99677.35;;;16.67;100.00
45872;BME280;32333;55.844;-3.210;2023-08-06T12:49:29;99681.44;;;14.70;100.00
45872;BME280;32333;55.844;-3.210;2023-08-06T12:51:58;99677.24;;;16.04;100.00
45872;BME280;32333;55.844;-3.210;2023-08-06T12:54:25;99671.75;;;16.23;100.00
45872;BME280;32333;55.844;-3.210;2023-08-06T12:56:54;99673.57;;;16.12;100.00
45872;BME280;32333;55.844;-3.210;2023-08-06T12:59:23;99671.09;;;17.57;100.00
45872;BME280;32333;55.844;-3.210;2023-08-06T13:01:50;99666.85;;;17.48;100.00
45872;BME280;32333;55.844;-3.210;2023-08-06T13:04:18;99666.75;;;18.29;100.00
45872;BME280;32333;55.844;-3.210;2023-08-06T13:06:45;99664.82;;;18.95;100.00
45872;BME280;32333;55.844;-3.210;2023-08-06T13:09:13;99664.65;;;18.42;100.00
45872;BME280;32333;55.844;-3.210;2023-08-06T13:11:40;99663.49;;;16.14;100.00
45872;BME280;32333;55.844;-3.210;2023-08-06T13:14:35;99661.40;;;18.72;95.98
45872;BME280;32333;55.844;-3.210;2023-08-06T13:17:02;99660.63;;;18.31;92.29
45872;BME280;32333;55.844;-3.210;2023-08-06T13:19:30;99654.38;;;17.71;91.41
45872;BME280;32333;55.844;-3.210;2023-08-06T13:22:02;99652.21;;;17.83;93.70
45872;BME280;32333;55.844;-3.210;2023-08-06T13:24:30;99658.73;;;16.53;100.00
45872;BME280;32333;55.844;-3.210;2023-08-06T13:26:58;99654.50;;;17.52;100.00
45872;BME280;32333;55.844;-3.210;2023-08-06T13:29:25;99654.69;;;17.06;100.00